Time;durP1;ratioP1;P1;durP2;ratioP2;P2;SDS_P1;SDS_P2;PMS_P1;PMS_P2;Temp;Humidity;BMP_temperature;BMP_pressure;BME280_temperature;BME280_humidity;BME280_pressure;Samples;Min_cycle;Max_cycle;Signal;HPM_P1;HPM_P2
2024/01/05 00:01:38;;;;;;;17.95;9.43;;;3.60;95.80;;;;;;5101089;27;20035;-80
2024/01/05 00:04:03;;;;;;;18.63;11.02;;;3.60;95.80;;;;;;5135406;27;20096;-79
2024/01/05 00:06:29;;;;;;;27.65;10.93;;;3.60;95.80;;;;;;5135167;27;20054;-79
2024/01/05 00:08:55;;;;;;;18.90;10.70;;;3.60;96.00;;;;;;5117915;27;20045;-79
2024/01/05 00:11:21;;;;;;;19.25;11.70;;;3.60;96.10;;;;;;5135041;27;20035;-79
2024/01/05 00:13:48;;;;;;;15.65;9.77;;;3.50;96.10;;;;;;5117790;27;20039;-78
2024/01/05 00:16:21;;;;;;;19.90;9.57;;;3.50;96.10;;;;;;5135160;27;20436;-79
2024/01/05 00:18:47;;;;;;;18.35;10.05;;;3.50;96.10;;;;;;5135045;27;20035;-79
2024/01/05 00:21:24;;;;;;;20.02;10.88;;;3.50;96.10;;;;;;5135163;27;20046;-80
2024/01/05 00:23:51;;;;;;;19.90;10.18;;;3.50;96.30;;;;;;5118150;27;20049;-79
2024/01/05 00:26:18;;;;;;;19.65;11.48;;;3.50;96.20;;;;;;5135738;27;20066;-79
2024/01/05 00:28:45;;;;;;;19.02;12.25;;;3.50;96.10;;;;;;5118398;27;20050;-79
2024/01/05 00:31:11;;;;;;;29.10;12.93;;;3.50;96.10;;;;;;5135550;27;20057;-80
2024/01/05 00:33:41;;;;;;;20.33;11.30;;;3.50;96.10;;;;;;5118046;27;20122;-79
2024/01/05 00:36:08;;;;;;;26.60;13.02;;;3.50;96.20;;;;;;5117297;27;20054;-80
2024/01/05 00:38:35;;;;;;;18.77;12.75;;;3.50;96.20;;;;;;5117642;27;20387;-79
2024/01/05 00:41:01;;;;;;;21.65;13.68;;;3.50;96.20;;;;;;5134722;27;20046;-80
2024/01/05 00:43:27;;;;;;;26.85;13.95;;;3.40;96.40;;;;;;5134311;27;20070;-80
2024/01/05 00:45:53;;;;;;;24.60;12.70;;;3.50;96.40;;;;;;5134601;27;20047;-80
2024/01/05 00:48:19;;;;;;;21.02;12.57;;;3.40;96.40;;;;;;5100263;27;20047;-80
2024/01/05 00:50:45;;;;;;;21.13;12.82;;;3.50;96.30;;;;;;5100233;27;20050;-80
2024/01/05 00:53:11;;;;;;;24.90;13.73;;;3.50;96.30;;;;;;5134006;27;20039;-80
2024/01/05 00:55:37;;;;;;;21.40;13.65;;;3.40;96.30;;;;;;5134284;27;20039;-79
2024/01/05 00:58:03;;;;;;;23.10;13.43;;;3.50;96.30;;;;;;5083114;27;20037;-80
2024/01/05 01:00:29;;;;;;;22.60;14.70;;;3.50;96.30;;;;;;5117118;27;20471;-80
2024/01/05 01:02:54;;;;;;;27.33;14.40;;;3.40;96.30;;;;;;5133859;27;20050;-81
2024/01/05 01:05:21;;;;;;;23.60;15.25;;;3.40;96.40;;;;;;5100165;27;20047;-80
2024/01/05 01:07:47;;;;;;;21.38;13.40;;;3.40;96.40;;;;;;5100261;27;20043;-80
2024/01/05 01:10:13;;;;;;;25.08;14.57;;;3.40;96.30;;;;;;5133869;27;20495;-80
2024/01/05 01:12:39;;;;;;;24.80;14.88;;;3.40;96.30;;;;;;5133403;27;20061;-79
2024/01/05 01:15:06;;;;;;;25.13;14.38;;;3.40;96.40;;;;;;5099704;27;20039;-80
2024/01/05 01:17:32;;;;;;;21.77;14.02;;;3.40;96.50;;;;;;5133733;27;20047;-80
2024/01/05 01:19:58;;;;;;;20.95;13.25;;;3.30;96.60;;;;;;5116605;27;20039;-79
2024/01/05 01:22:24;;;;;;;22.02;14.65;;;3.40;96.60;;;;;;5116504;27;20031;-79
2024/01/05 01:24:50;;;;;;;20.20;11.82;;;3.30;96.50;;;;;;5099859;27;20039;-80
2024/01/05 01:27:16;;;;;;;21.92;14.57;;;3.40;96.60;;;;;;5116733;27;20043;-79
2024/01/05 01:29:42;;;;;;;21.05;11.55;;;3.30;96.50;;;;;;5116361;27;20049;-80
2024/01/05 01:32:11;;;;;;;27.67;14.95;;;3.40;96.60;;;;;;5116449;27;20039;-79
2024/01/05 01:34:38;;;;;;;21.02;12.10;;;3.30;96.50;;;;;;5116197;27;20134;-79
2024/01/05 01:37:04;;;;;;;23.70;12.70;;;3.30;96.60;;;;;;5133622;27;20453;-80
2024/01/05 01:39:30;;;;;;;17.88;11.65;;;3.40;96.60;;;;;;5116481;27;20134;-79
2024/01/05 01:41:57;;;;;;;19.65;12.27;;;3.40;96.50;;;;;;5116488;27;20045;-80
2024/01/05 01:44:22;;;;;;;23.33;13.77;;;3.40;96.50;;;;;;5116586;27;20074;-80
2024/01/05 01:46:51;;;;;;;19.95;12.85;;;3.40;96.50;;;;;;5099187;28;20487;-79
2024/01/05 01:49:17;;;;;;;23.70;14.43;;;3.40;96.50;;;;;;5116084;28;20043;-79
2024/01/05 01:51:44;;;;;;;27.58;15.48;;;3.30;96.50;;;;;;5099227;27;20536;-79
2024/01/05 01:54:10;;;;;;;19.45;12.40;;;3.30;96.60;;;;;;5116276;28;20035;-80
2024/01/05 01:56:37;;;;;;;21.98;14.90;;;3.30;96.60;;;;;;5133252;28;20502;-80
2024/01/05 01:59:05;;;;;;;23.20;14.57;;;3.30;96.80;;;;;;5098978;28;20039;-81
2024/01/05 02:01:30;;;;;;;22.92;14.32;;;3.20;96.90;;;;;;5133137;28;20083;-79
2024/01/05 02:03:57;;;;;;;22.83;14.27;;;3.30;96.80;;;;;;5116032;28;20448;-80
2024/01/05 02:06:22;;;;;;;25.00;14.60;;;3.30;96.80;;;;;;5099105;28;20039;-79
2024/01/05 02:08:50;;;;;;;22.38;15.05;;;3.30;96.80;;;;;;5116304;28;20087;-79
2024/01/05 02:11:16;;;;;;;23.20;15.05;;;3.30;96.80;;;;;;5116425;28;20454;-79
2024/01/05 02:13:42;;;;;;;23.35;14.18;;;3.30;96.80;;;;;;5115986;28;20051;-79
2024/01/05 02:16:08;;;;;;;22.35;14.95;;;3.30;96.90;;;;;;5133375;28;20043;-80
2024/01/05 02:18:34;;;;;;;24.30;14.68;;;3.30;96.80;;;;;;5115952;28;20035;-81
2024/01/05 02:21:02;;;;;;;29.55;16.35;;;3.30;96.80;;;;;;5116270;28;20039;-80
2024/01/05 02:23:29;;;;;;;28.23;17.15;;;3.30;96.80;;;;;;5116507;28;20043;-79
2024/01/05 02:25:55;;;;;;;30.20;18.40;;;3.30;96.90;;;;;;5099379;28;20033;-80
2024/01/05 02:28:21;;;;;;;26.33;16.13;;;3.30;96.90;;;;;;5115922;28;20039;-79
2024/01/05 02:30:47;;;;;;;28.88;17.52;;;3.30;96.80;;;;;;5116008;28;20054;-79
2024/01/05 02:33:13;;;;;;;24.83;17.33;;;3.30;96.70;;;;;;5115321;28;20479;-79
2024/01/05 02:35:39;;;;;;;24.23;16.30;;;3.30;96.80;;;;;;5098461;28;20062;-79
2024/01/05 02:38:05;;;;;;;26.85;15.75;;;3.20;96.90;;;;;;5132447;28;20043;-79
2024/01/05 02:40:31;;;;;;;25.92;16.33;;;3.30;96.90;;;;;;5098748;28;20039;-79
2024/01/05 02:42:57;;;;;;;27.83;15.32;;;3.30;96.80;;;;;;5115668;28;20547;-79
2024/01/05 02:45:24;;;;;;;24.20;15.65;;;3.30;96.80;;;;;;5115890;28;20122;-79
2024/01/05 02:47:50;;;;;;;23.23;14.52;;;3.20;96.80;;;;;;5098833;28;20042;-80
2024/01/05 02:50:17;;;;;;;22.02;14.10;;;3.20;96.90;;;;;;5132625;28;20043;-79
2024/01/05 02:52:43;;;;;;;22.63;14.13;;;3.20;96.90;;;;;;5115673;28;20031;-79
2024/01/05 02:55:12;;;;;;;23.80;15.25;;;3.30;96.80;;;;;;5115676;28;20369;-79
2024/01/05 02:57:39;;;;;;;22.20;12.80;;;3.20;96.80;;;;;;5115976;28;20031;-79
2024/01/05 03:00:05;;;;;;;18.90;13.85;;;3.30;96.70;;;;;;5133889;28;20031;-80
2024/01/05 03:02:31;;;;;;;20.60;13.07;;;3.30;96.70;;;;;;5116079;28;20031;-79
2024/01/05 03:04:57;;;;;;;21.00;12.68;;;3.30;96.70;;;;;;5098899;28;20126;-80
2024/01/05 03:07:23;;;;;;;23.45;12.35;;;3.30;96.70;;;;;;5098568;28;20039;-79
2024/01/05 03:09:49;;;;;;;21.23;12.75;;;3.30;96.70;;;;;;5116158;27;20436;-80
2024/01/05 03:12:16;;;;;;;21.73;12.75;;;3.20;96.80;;;;;;5102646;27;20051;-79
2024/01/05 03:14:41;;;;;;;19.30;12.35;;;3.20;96.80;;;;;;5136276;27;20402;-79
2024/01/05 03:17:07;;;;;;;20.90;11.85;;;3.20;96.90;;;;;;5119444;27;20038;-79
2024/01/05 03:19:33;;;;;;;20.00;12.32;;;3.20;96.80;;;;;;5118999;27;20451;-78
2024/01/05 03:21:59;;;;;;;22.33;13.02;;;3.20;96.80;;;;;;5118863;27;20087;-80
2024/01/05 03:24:24;;;;;;;21.17;12.88;;;3.30;96.80;;;;;;5102162;27;20041;-80
2024/01/05 03:26:50;;;;;;;18.45;12.23;;;3.30;96.70;;;;;;5136084;27;20035;-79
2024/01/05 03:29:16;;;;;;;18.88;11.10;;;3.20;96.80;;;;;;5135792;27;20122;-79
2024/01/05 03:31:48;;;;;;;20.13;11.65;;;3.20;96.80;;;;;;5118617;27;20043;-79
2024/01/05 03:34:14;;;;;;;21.38;12.50;;;3.20;96.90;;;;;;5135463;27;20082;-79
2024/01/05 03:36:40;;;;;;;22.75;13.13;;;3.10;96.90;;;;;;5118696;27;20055;-79
2024/01/05 03:39:07;;;;;;;21.30;12.52;;;3.20;96.90;;;;;;5118392;27;20035;-80
2024/01/05 03:41:34;;;;;;;22.77;11.70;;;3.20;96.90;;;;;;5135976;27;20164;-80
2024/01/05 03:44:00;;;;;;;18.95;12.82;;;3.10;96.90;;;;;;5135560;27;20047;-79
2024/01/05 03:46:26;;;;;;;20.33;12.73;;;3.20;97.00;;;;;;5118329;27;20046;-80
2024/01/05 03:48:52;;;;;;;18.63;11.57;;;3.10;97.00;;;;;;5118645;27;20088;-79
2024/01/05 03:51:18;;;;;;;19.17;11.73;;;3.10;97.00;;;;;;5135780;27;20043;-80
2024/01/05 03:53:44;;;;;;;19.33;11.43;;;3.10;97.00;;;;;;5117975;27;20088;-80
2024/01/05 03:56:09;;;;;;;21.88;11.63;;;3.10;97.10;;;;;;5084079;27;20092;-80
2024/01/05 03:58:35;;;;;;;17.23;11.13;;;3.10;97.00;;;;;;5135109;27;20074;-79
2024/01/05 04:01:02;;;;;;;20.88;11.40;;;3.10;97.00;;;;;;5118075;27;20031;-79
2024/01/05 04:03:28;;;;;;;17.98;10.55;;;3.10;97.00;;;;;;5117936;27;20050;-80
2024/01/05 04:05:54;;;;;;;18.35;10.23;;;3.20;96.90;;;;;;5117902;27;20039;-80
2024/01/05 04:08:20;;;;;;;17.60;11.07;;;3.20;97.00;;;;;;5135004;27;20047;-80
2024/01/05 04:10:46;;;;;;;18.15;10.80;;;3.20;96.90;;;;;;5134984;27;20043;-79
2024/01/05 04:13:12;;;;;;;15.90;10.60;;;3.20;96.90;;;;;;5135084;27;20050;-80
2024/01/05 04:15:39;;;;;;;18.55;11.10;;;3.20;96.90;;;;;;5084303;27;20046;-80
2024/01/05 04:18:05;;;;;;;16.40;11.02;;;3.10;96.90;;;;;;5100955;27;20038;-80
2024/01/05 04:20:31;;;;;;;19.38;11.88;;;3.20;96.90;;;;;;5100799;27;20483;-79
2024/01/05 04:22:57;;;;;;;16.58;9.73;;;3.20;96.90;;;;;;5116994;27;20159;-81
2024/01/05 04:25:23;;;;;;;20.10;10.48;;;3.20;96.90;;;;;;5117738;27;20079;-79
2024/01/05 04:27:49;;;;;;;14.77;9.77;;;3.20;96.90;;;;;;5100551;27;20126;-80
2024/01/05 04:30:15;;;;;;;17.00;11.60;;;3.20;96.90;;;;;;5117801;27;20039;-80
2024/01/05 04:32:44;;;;;;;20.33;11.45;;;3.20;96.90;;;;;;5117641;27;20042;-81
2024/01/05 04:35:09;;;;;;;18.15;11.27;;;3.10;96.90;;;;;;5100146;27;20055;-81
2024/01/05 04:37:35;;;;;;;18.10;10.43;;;3.10;97.00;;;;;;5117451;27;20066;-81
2024/01/05 04:40:01;;;;;;;18.88;11.60;;;3.20;97.00;;;;;;5117293;27;20119;-80
2024/01/05 04:42:28;;;;;;;21.48;12.43;;;3.10;97.00;;;;;;5117604;27;20043;-81
2024/01/05 04:44:54;;;;;;;18.60;11.18;;;3.10;97.10;;;;;;5100065;27;20055;-80
2024/01/05 04:47:19;;;;;;;17.17;11.23;;;3.10;97.10;;;;;;5099939;27;20097;-80
2024/01/05 04:49:45;;;;;;;20.90;11.32;;;3.10;97.00;;;;;;5100219;27;20039;-80
2024/01/05 04:52:11;;;;;;;18.00;11.52;;;3.20;97.00;;;;;;5083248;27;20441;-80
2024/01/05 04:54:37;;;;;;;18.60;11.40;;;3.10;97.00;;;;;;5134138;27;20047;-81
2024/01/05 04:57:03;;;;;;;16.67;11.23;;;3.20;97.00;;;;;;5134153;27;20035;-80
2024/01/05 04:59:30;;;;;;;15.80;10.30;;;3.20;97.00;;;;;;5117213;27;20043;-80
2024/01/05 05:01:56;;;;;;;19.00;12.48;;;3.20;97.00;;;;;;5117193;27;20062;-80
2024/01/05 05:04:21;;;;;;;19.88;11.45;;;3.20;97.00;;;;;;5117016;27;20039;-80
2024/01/05 05:06:47;;;;;;;17.98;10.35;;;3.20;97.10;;;;;;5099976;27;20122;-81
2024/01/05 05:09:13;;;;;;;13.75;8.18;;;3.20;97.10;;;;;;5099910;27;20039;-81
2024/01/05 05:11:42;;;;;;;20.58;10.35;;;3.30;97.00;;;;;;5100092;27;20035;-80
2024/01/05 05:14:07;;;;;;;17.27;11.45;;;3.30;97.00;;;;;;5134497;27;20039;-82
2024/01/05 05:16:35;;;;;;;19.50;10.93;;;3.30;97.00;;;;;;5116719;27;20042;-80
2024/01/05 05:19:01;;;;;;;15.13;10.10;;;3.30;97.10;;;;;;5133758;27;20035;-81
2024/01/05 05:21:28;;;;;;;15.82;10.27;;;3.30;97.00;;;;;;5133756;27;20556;-81
2024/01/05 05:23:54;;;;;;;20.98;12.07;;;3.30;97.00;;;;;;5116515;27;20129;-81
2024/01/05 05:26:19;;;;;;;18.08;11.80;;;3.40;97.00;;;;;;5100350;27;20146;-81
2024/01/05 05:28:45;;;;;;;17.75;11.05;;;3.30;97.00;;;;;;5099773;27;20449;-81
2024/01/05 05:31:11;;;;;;;18.00;11.25;;;3.40;97.00;;;;;;5099901;27;20074;-80
2024/01/05 05:33:36;;;;;;;19.02;11.18;;;3.30;97.00;;;;;;5115558;28;20035;-81
2024/01/05 05:36:02;;;;;;;15.50;10.15;;;3.40;97.00;;;;;;5099194;27;20506;-80
2024/01/05 05:38:28;;;;;;;21.40;11.85;;;3.30;97.00;;;;;;5133528;27;20043;-81
2024/01/05 05:40:54;;;;;;;16.70;11.32;;;3.40;97.00;;;;;;5099740;27;20027;-80
2024/01/05 05:43:19;;;;;;;18.65;11.10;;;3.30;97.00;;;;;;5116317;27;20096;-80
2024/01/05 05:45:45;;;;;;;16.38;10.82;;;3.30;97.10;;;;;;5116305;27;20035;-81
2024/01/05 05:48:12;;;;;;;20.08;10.50;;;3.40;97.00;;;;;;5099755;27;20035;-80
2024/01/05 05:50:38;;;;;;;18.73;11.82;;;3.40;97.10;;;;;;5116356;28;20479;-78
2024/01/05 05:53:03;;;;;;;22.90;13.15;;;3.40;97.20;;;;;;5116179;27;20091;-78
2024/01/05 05:55:29;;;;;;;21.35;12.93;;;3.40;97.20;;;;;;5082351;28;20047;-79
2024/01/05 05:57:57;;;;;;;26.70;13.60;;;3.30;97.20;;;;;;5116362;28;20035;-78
2024/01/05 06:00:24;;;;;;;20.05;14.27;;;3.40;97.20;;;;;;5116472;28;20063;-79
2024/01/05 06:02:49;;;;;;;20.33;12.95;;;3.40;97.20;;;;;;5116384;28;20049;-80
2024/01/05 06:05:15;;;;;;;19.00;12.07;;;3.40;97.20;;;;;;5099209;28;20418;-79
2024/01/05 06:07:41;;;;;;;20.70;12.60;;;3.40;97.20;;;;;;5099099;28;20042;-79
2024/01/05 06:10:07;;;;;;;23.25;13.55;;;3.30;97.20;;;;;;5115950;28;20039;-79
2024/01/05 06:12:33;;;;;;;19.80;13.13;;;3.30;97.30;;;;;;5099098;28;20487;-79
2024/01/05 06:14:59;;;;;;;21.23;12.65;;;3.40;97.30;;;;;;5115655;28;20042;-80
2024/01/05 06:17:25;;;;;;;18.90;11.60;;;3.40;97.20;;;;;;5133174;28;20035;-80
2024/01/05 06:19:50;;;;;;;23.10;14.23;;;3.40;97.30;;;;;;5099221;28;20121;-80
2024/01/05 06:22:16;;;;;;;22.75;13.35;;;3.40;97.20;;;;;;5115790;28;20086;-79
2024/01/05 06:24:44;;;;;;;25.15;15.27;;;3.40;97.20;;;;;;5116096;28;20043;-79
2024/01/05 06:27:11;;;;;;;27.52;15.30;;;3.40;97.30;;;;;;5115869;28;20049;-79
2024/01/05 06:29:37;;;;;;;23.17;14.43;;;3.40;97.40;;;;;;5132994;28;20039;-79
2024/01/05 06:32:03;;;;;;;21.95;13.35;;;3.40;97.40;;;;;;5132897;28;20478;-81
2024/01/05 06:34:29;;;;;;;22.73;12.73;;;3.50;97.40;;;;;;5115751;28;20035;-79
2024/01/05 06:36:54;;;;;;;18.77;11.75;;;3.40;97.50;;;;;;5099503;28;20575;-80
2024/01/05 06:39:20;;;;;;;21.05;11.07;;;3.40;97.50;;;;;;5133117;28;20078;-81
2024/01/05 06:41:46;;;;;;;20.70;12.60;;;3.40;97.60;;;;;;5116000;28;20039;-79
2024/01/05 06:44:11;;;;;;;20.98;11.65;;;3.40;97.60;;;;;;5132634;28;20460;-80
2024/01/05 06:46:37;;;;;;;17.77;11.05;;;3.40;97.60;;;;;;5102077;27;20046;-79
2024/01/05 06:49:03;;;;;;;18.88;11.20;;;3.50;97.50;;;;;;5136587;27;20043;-80
2024/01/05 06:51:35;;;;;;;20.85;12.20;;;3.50;97.60;;;;;;5119323;27;20039;-80
2024/01/05 06:54:01;;;;;;;16.90;10.70;;;3.50;97.50;;;;;;5136459;27;20035;-78
2024/01/05 06:56:31;;;;;;;20.55;12.88;;;3.50;97.60;;;;;;5119251;27;20046;-79
2024/01/05 06:58:58;;;;;;;17.50;12.23;;;3.50;97.60;;;;;;5136521;27;20039;-80
2024/01/05 07:01:23;;;;;;;23.15;13.52;;;3.50;97.60;;;;;;5085921;27;20403;-80
2024/01/05 07:03:49;;;;;;;22.20;13.13;;;3.50;97.70;;;;;;5119146;27;20043;-79
2024/01/05 07:06:15;;;;;;;23.92;14.07;;;3.40;97.80;;;;;;5102232;27;20058;-80
2024/01/05 07:08:41;;;;;;;21.70;13.90;;;3.50;97.80;;;;;;5102629;27;20542;-80
2024/01/05 07:11:07;;;;;;;24.05;12.98;;;3.50;97.60;;;;;;5085396;27;20126;-81
2024/01/05 07:13:32;;;;;;;20.80;13.55;;;3.60;97.70;;;;;;5084699;27;20126;-79
2024/01/05 07:16:01;;;;;;;23.92;14.63;;;3.50;97.60;;;;;;5102042;27;20049;-80
2024/01/05 07:18:27;;;;;;;26.75;15.18;;;3.60;97.50;;;;;;5118584;27;20035;-81
2024/01/05 07:20:53;;;;;;;26.58;14.50;;;3.60;97.50;;;;;;5101136;27;20046;-80
2024/01/05 07:23:18;;;;;;;24.65;14.45;;;3.60;97.50;;;;;;5101263;27;20039;-81
2024/01/05 07:25:44;;;;;;;27.00;15.77;;;3.60;97.50;;;;;;5118222;27;20074;-81
2024/01/05 07:28:10;;;;;;;27.38;16.05;;;3.60;97.50;;;;;;5084523;27;20043;-80
2024/01/05 07:30:37;;;;;;;28.85;16.20;;;3.60;97.50;;;;;;5101242;27;20106;-80
2024/01/05 07:33:03;;;;;;;24.45;14.82;;;3.60;97.50;;;;;;5101368;27;20037;-81
2024/01/05 07:35:28;;;;;;;23.38;13.90;;;3.70;97.60;;;;;;5100982;27;20059;-79
2024/01/05 07:37:54;;;;;;;23.23;14.48;;;3.60;97.60;;;;;;5084256;27;20035;-80
2024/01/05 07:40:20;;;;;;;23.15;13.90;;;3.60;97.60;;;;;;5118056;27;20039;-80
2024/01/05 07:42:45;;;;;;;26.40;15.20;;;3.70;97.80;;;;;;5135259;27;20126;-81
2024/01/05 07:45:11;;;;;;;23.60;14.25;;;3.60;97.70;;;;;;5117994;27;20121;-81
2024/01/05 07:47:36;;;;;;;25.27;13.48;;;3.70;97.80;;;;;;5117882;27;20039;-81
2024/01/05 07:50:03;;;;;;;24.50;15.27;;;3.70;97.80;;;;;;5118145;27;20046;-81
2024/01/05 07:52:28;;;;;;;30.98;14.48;;;3.70;97.80;;;;;;5135164;27;20046;-80
2024/01/05 07:54:55;;;;;;;22.17;13.27;;;3.80;97.80;;;;;;5083873;27;20551;-81
2024/01/05 07:57:21;;;;;;;21.98;14.02;;;3.80;97.80;;;;;;5134046;27;20043;-80
2024/01/05 07:59:46;;;;;;;23.27;14.65;;;3.80;97.90;;;;;;5117980;27;20042;-80
2024/01/05 08:02:13;;;;;;;23.30;14.45;;;3.80;98.00;;;;;;5134618;27;20478;-81
2024/01/05 08:04:39;;;;;;;23.73;13.55;;;3.80;98.00;;;;;;5117805;27;20091;-81
2024/01/05 08:07:05;;;;;;;24.25;14.38;;;3.80;97.90;;;;;;5117791;27;20079;-82
2024/01/05 08:09:31;;;;;;;25.17;14.65;;;3.90;97.90;;;;;;5100953;27;20486;-81
2024/01/05 08:11:56;;;;;;;26.73;13.98;;;3.90;97.80;;;;;;5100410;27;20046;-81
2024/01/05 08:14:22;;;;;;;25.17;13.57;;;3.90;98.00;;;;;;5117348;27;20046;-81
2024/01/05 08:16:48;;;;;;;25.48;14.38;;;3.90;98.00;;;;;;5117874;27;20050;-80
2024/01/05 08:19:14;;;;;;;21.55;13.23;;;3.90;98.00;;;;;;5083690;27;20035;-81
2024/01/05 08:21:40;;;;;;;23.55;13.35;;;3.90;97.90;;;;;;5117185;27;20039;-81
2024/01/05 08:24:06;;;;;;;22.42;13.48;;;3.90;98.00;;;;;;5083331;27;20050;-81
2024/01/05 08:26:31;;;;;;;25.77;14.57;;;3.90;98.00;;;;;;5099987;27;20039;-79
2024/01/05 08:28:57;;;;;;;23.80;14.80;;;3.90;98.00;;;;;;5099838;27;20043;-80
2024/01/05 08:31:23;;;;;;;28.45;15.68;;;3.90;98.10;;;;;;5100018;27;20043;-80
2024/01/05 08:33:48;;;;;;;22.45;14.40;;;3.90;98.10;;;;;;5099596;27;20567;-79
2024/01/05 08:36:14;;;;;;;27.83;14.35;;;3.90;98.10;;;;;;5133404;27;20051;-80
2024/01/05 08:38:40;;;;;;;26.10;14.77;;;4.00;98.20;;;;;;5116581;27;20051;-79
2024/01/05 08:41:05;;;;;;;27.98;15.70;;;4.00;98.20;;;;;;5116587;27;20432;-79
2024/01/05 08:43:31;;;;;;;25.38;15.85;;;4.00;98.20;;;;;;5134045;27;20038;-80
2024/01/05 08:45:57;;;;;;;23.48;13.98;;;4.00;98.20;;;;;;5116570;27;20052;-80
2024/01/05 08:48:23;;;;;;;29.30;16.20;;;4.10;98.10;;;;;;5082906;27;20027;-80
2024/01/05 08:50:48;;;;;;;25.90;14.93;;;4.10;98.20;;;;;;5116896;27;20042;-80
2024/01/05 08:53:14;;;;;;;29.65;16.35;;;4.10;98.20;;;;;;5099666;27;20042;-80
2024/01/05 08:55:40;;;;;;;28.80;17.13;;;4.10;98.10;;;;;;5082836;27;20035;-80
2024/01/05 08:58:05;;;;;;;29.52;16.02;;;4.10;98.10;;;;;;5133737;27;20081;-80
2024/01/05 09:00:32;;;;;;;26.83;15.10;;;4.10;98.20;;;;;;5099835;27;20027;-80
2024/01/05 09:02:58;;;;;;;32.28;16.98;;;4.10;98.20;;;;;;5116404;27;20081;-80
2024/01/05 09:05:23;;;;;;;30.58;16.20;;;4.10;98.30;;;;;;5116692;27;20070;-80
2024/01/05 09:07:49;;;;;;;26.00;15.65;;;4.10;98.30;;;;;;5133330;27;20043;-80
2024/01/05 09:10:15;;;;;;;27.63;15.27;;;4.20;98.30;;;;;;5116420;27;20043;-80
2024/01/05 09:12:40;;;;;;;25.45;15.73;;;4.20;98.30;;;;;;5116331;27;20043;-80
2024/01/05 09:15:07;;;;;;;25.25;14.85;;;4.20;98.30;;;;;;5099646;27;20038;-79
2024/01/05 09:17:33;;;;;;;27.95;15.00;;;4.20;98.30;;;;;;5133618;27;20127;-80
2024/01/05 09:20:00;;;;;;;27.30;14.95;;;4.20;98.20;;;;;;5099168;27;20096;-79
2024/01/05 09:22:25;;;;;;;26.17;14.57;;;4.30;98.30;;;;;;5133337;27;20064;-80
2024/01/05 09:24:51;;;;;;;26.98;14.73;;;4.30;98.20;;;;;;5099692;27;20050;-82
2024/01/05 09:27:17;;;;;;;19.65;12.95;;;4.30;98.30;;;;;;5116435;27;20095;-81
2024/01/05 09:29:42;;;;;;;25.02;13.90;;;4.30;98.30;;;;;;5099457;27;20092;-81
2024/01/05 09:32:08;;;;;;;21.38;13.05;;;4.30;98.20;;;;;;5082551;27;20054;-81
2024/01/05 09:34:34;;;;;;;22.30;13.93;;;4.40;98.30;;;;;;5082117;27;20089;-79
2024/01/05 09:36:59;;;;;;;22.73;13.52;;;4.40;98.30;;;;;;5099393;27;20047;-80
2024/01/05 09:39:25;;;;;;;21.50;14.15;;;4.40;98.30;;;;;;5082403;27;20038;-80
2024/01/05 09:41:51;;;;;;;22.80;14.25;;;4.40;98.30;;;;;;5099438;27;20039;-82
2024/01/05 09:44:17;;;;;;;26.42;15.57;;;4.40;98.20;;;;;;5116073;28;20046;-81
2024/01/05 09:46:44;;;;;;;25.08;14.38;;;4.40;98.20;;;;;;5132945;27;20462;-81
2024/01/05 09:49:13;;;;;;;23.75;13.73;;;4.40;98.20;;;;;;5098796;27;20126;-80
2024/01/05 09:51:39;;;;;;;24.60;14.73;;;4.40;98.20;;;;;;5133025;27;20042;-80
2024/01/05 09:54:06;;;;;;;23.70;14.32;;;4.50;98.10;;;;;;5115653;27;20120;-80
2024/01/05 09:56:32;;;;;;;21.15;13.57;;;4.50;98.20;;;;;;5133217;27;20390;-82
2024/01/05 09:58:59;;;;;;;22.13;14.43;;;4.50;98.20;;;;;;5132743;28;20452;-79
2024/01/05 10:01:26;;;;;;;23.83;15.05;;;4.50;98.20;;;;;;5115606;28;20076;-79
2024/01/05 10:03:56;;;;;;;26.35;14.75;;;4.50;98.20;;;;;;5098587;28;20068;-81
2024/01/05 10:06:22;;;;;;;25.55;15.45;;;4.60;98.10;;;;;;5115629;28;20099;-80
2024/01/05 10:08:53;;;;;;;24.80;15.35;;;4.60;98.20;;;;;;5115793;28;20046;-79
2024/01/05 10:11:33;;;;;;;19.35;13.27;;;4.60;98.20;;;;;;5115807;28;20039;-82
2024/01/05 10:14:01;;;;;;;27.27;15.65;;;4.60;98.10;;;;;;5132786;28;20039;-81
2024/01/05 10:16:36;;;;;;;22.92;13.98;;;4.60;98.10;;;;;;5134046;28;20039;-80
2024/01/05 10:19:14;;;;;;;22.75;14.18;;;4.60;98.20;;;;;;5100258;27;20108;-82
2024/01/05 10:21:42;;;;;;;25.23;15.55;;;4.60;98.10;;;;;;5119173;27;20080;-81
2024/01/05 10:24:21;;;;;;;26.27;14.05;;;4.60;98.10;;;;;;5137034;27;20039;-81
2024/01/05 10:27:00;;;;;;;23.08;13.88;;;4.60;98.10;;;;;;5137372;27;20043;-79
2024/01/05 10:29:26;;;;;;;22.15;13.93;;;4.60;98.20;;;;;;5136750;27;20039;-82
2024/01/05 10:31:52;;;;;;;24.00;13.77;;;4.60;98.20;;;;;;5102597;27;20035;-80
2024/01/05 10:34:17;;;;;;;21.85;14.20;;;4.70;98.20;;;;;;5102433;27;20039;-80
2024/01/05 10:36:43;;;;;;;20.50;13.02;;;4.70;98.20;;;;;;5119300;27;20078;-80
2024/01/05 10:39:09;;;;;;;18.80;11.30;;;4.70;98.20;;;;;;5136413;27;20506;-80
2024/01/05 10:41:35;;;;;;;21.42;12.50;;;4.70;98.20;;;;;;5119372;27;20088;-80
2024/01/05 10:44:03;;;;;;;26.73;14.70;;;4.70;98.20;;;;;;5102173;27;20455;-80
2024/01/05 10:46:31;;;;;;;20.63;12.27;;;4.80;98.20;;;;;;5119226;27;20483;-81
2024/01/05 10:48:57;;;;;;;22.58;14.65;;;4.80;98.20;;;;;;5119131;27;20045;-81
2024/01/05 10:51:23;;;;;;;19.92;13.13;;;4.80;98.20;;;;;;5136288;27;20465;-80
2024/01/05 10:53:50;;;;;;;19.85;12.10;;;4.80;98.20;;;;;;5136112;27;20096;-81
2024/01/05 10:56:19;;;;;;;20.02;12.43;;;4.80;98.20;;;;;;5119103;27;20072;-80
2024/01/05 10:58:47;;;;;;;18.48;12.23;;;4.90;98.20;;;;;;5136062;27;20071;-81
2024/01/05 11:01:16;;;;;;;21.23;12.70;;;4.90;98.30;;;;;;5119049;27;20433;-80
2024/01/05 11:03:44;;;;;;;18.77;11.35;;;4.90;98.30;;;;;;5118854;27;20038;-81
2024/01/05 11:06:10;;;;;;;14.63;10.85;;;5.00;98.30;;;;;;5118717;27;20039;-80
2024/01/05 11:09:00;;;;;;;21.23;12.00;;;5.00;98.30;;;;;;5118984;27;20092;-79
2024/01/05 11:11:55;;;;;;;21.58;12.07;;;5.00;98.30;;;;;;5118906;27;20502;-80
2024/01/05 11:14:20;;;;;;;19.20;11.55;;;5.00;98.30;;;;;;5118749;27;20043;-80
2024/01/05 11:17:21;;;;;;;18.67;11.82;;;5.00;98.40;;;;;;5118816;27;20046;-81
2024/01/05 11:19:53;;;;;;;19.20;10.50;;;5.00;98.40;;;;;;5118663;27;20035;-81
2024/01/05 11:22:27;;;;;;;19.65;11.57;;;5.10;98.30;;;;;;5118735;27;20032;-80
2024/01/05 11:24:55;;;;;;;19.17;11.68;;;5.10;98.30;;;;;;5135757;27;20487;-80
2024/01/05 11:27:33;;;;;;;21.20;12.30;;;5.10;98.40;;;;;;5118601;27;20039;-79
2024/01/05 11:30:00;;;;;;;23.33;13.40;;;5.10;98.40;;;;;;5118460;27;20573;-81
2024/01/05 11:32:32;;;;;;;17.00;11.50;;;5.10;98.40;;;;;;5118243;27;20074;-80
2024/01/05 11:34:58;;;;;;;19.85;12.15;;;5.20;98.40;;;;;;5135219;27;20051;-81
2024/01/05 11:37:29;;;;;;;21.05;11.82;;;5.30;98.30;;;;;;5118253;27;20061;-82
2024/01/05 11:39:56;;;;;;;21.80;13.85;;;5.30;98.30;;;;;;5135330;27;20076;-81
2024/01/05 11:42:25;;;;;;;19.73;11.57;;;5.30;98.40;;;;;;5118094;27;20122;-80
2024/01/05 11:44:52;;;;;;;24.92;14.85;;;5.30;98.40;;;;;;5118306;27;20031;-81
2024/01/05 11:47:56;;;;;;;19.15;12.18;;;5.30;98.40;;;;;;5118079;27;20047;-79
2024/01/05 11:50:33;;;;;;;23.52;14.40;;;5.30;98.40;;;;;;5043015;28;20076;-81
2024/01/05 11:53:13;;;;;;;17.58;11.57;;;5.40;98.40;;;;;;5060866;28;20061;-81
2024/01/05 11:55:45;;;;;;;22.50;14.10;;;5.30;98.40;;;;;;5095876;27;20047;-81
2024/01/05 11:58:29;;;;;;;26.95;15.68;;;5.40;98.40;;;;;;5118217;27;20096;-79
2024/01/05 12:00:59;;;;;;;27.15;14.30;;;5.30;98.40;;;;;;5118000;27;20039;-79
2024/01/05 12:03:25;;;;;;;25.10;13.82;;;5.40;98.40;;;;;;5117962;27;20061;-80
2024/01/05 12:05:54;;;;;;;18.23;12.68;;;5.40;98.40;;;;;;5134769;27;20046;-80
2024/01/05 12:08:21;;;;;;;23.77;14.05;;;5.40;98.40;;;;;;5134775;27;20091;-80
2024/01/05 12:11:11;;;;;;;20.27;12.75;;;5.40;98.40;;;;;;5117598;27;20491;-79
2024/01/05 12:13:39;;;;;;;21.83;13.90;;;5.40;98.40;;;;;;5117312;27;20433;-79
2024/01/05 12:16:09;;;;;;;20.10;12.35;;;5.40;98.50;;;;;;5134630;27;20043;-79
2024/01/05 12:18:52;;;;;;;24.38;14.48;;;5.50;98.40;;;;;;5117458;27;20043;-81
2024/01/05 12:21:19;;;;;;;24.60;14.45;;;5.50;98.50;;;;;;5101202;27;20039;-80
2024/01/05 12:23:56;;;;;;;22.45;13.25;;;5.50;98.50;;;;;;5100672;27;20141;-79
2024/01/05 12:26:22;;;;;;;17.83;11.73;;;5.50;98.50;;;;;;5117263;27;20061;-80
2024/01/05 12:28:48;;;;;;;22.60;13.05;;;5.50;98.40;;;;;;5117299;27;20553;-80
2024/01/05 12:31:14;;;;;;;24.05;14.55;;;5.60;98.40;;;;;;5117523;27;20496;-82
2024/01/05 12:33:42;;;;;;;24.38;14.18;;;5.60;98.40;;;;;;5134127;27;20043;-80
2024/01/05 12:36:14;;;;;;;24.92;14.50;;;5.60;98.40;;;;;;5099959;27;20104;-82
2024/01/05 12:38:40;;;;;;;23.65;14.77;;;5.60;98.50;;;;;;5085352;27;20035;-81